West Lakeland, Minnesota
Current Conditions -  °F | °C
As of 4:51 PM on Tuesday 27 Jan 2015 (Local Time) from K21D Reporting Station
Overcast Overcast  
Wind Chill: 26°   Ceiling: 1800
Heat Index: 32°   Visibility: 10mi
Dew Point: 27°   Wind: 7mph
Humidity: 80%   Direction: 140°SE
Pressure: 30.16"   Gusts: NA
Location:  45.0713°N, 92.8375°W
Report Text: K21D 272251Z AUTO 14006KT 10SM OVC018 00/M03 A3016 RMK AO2
Loading
Personal Weather Stations






























Interactive Weather Map New forecast layout! Learn more

10-Day Weather Forecast

Advertisements
Track Severe Weather on mobile